Shauck, Ohio
Current Conditions -  °F | °C
As of 11:52 AM on Friday 24 Oct 2014 (Local Time) from KMFD Reporting Station
Clear Clear  
Wind Chill: 57°   Ceiling: Unl
Heat Index: 57°   Visibility: 10mi
Dew Point: 40°   Wind: 3mph
Humidity: 53%   Direction: NA
Pressure: 30.1"   Gusts: NA
Location:  40.62°N, 82.66°W
Report Text: KMFD 241552Z VRB03KT 10SM CLR 14/04 A3010 RMK AO2 SLP195 T01390044
Loading
Personal Weather Stations






























Interactive Weather Map
Tropical Storm Tracking
New forecast layout! Learn more

10-Day Weather Forecast

Advertisements
Track Severe Weather on mobile